»·PEaware :: N551GL KBFL-KSMX

N551GL :: KBFL-KSMX

FLIGHT INFORMATION

Flight Status: Arrived
Operator: Privately registered:
United States
More flights under this callsign
Pilot: Georg L. (13308)
Aircraft: CIRRUS SR-22 TURBO
(S22T)
More flights by this aircraft type
Origin: KBFL Meadows
United States
Destination: KSMX Santa Maria Pub/Capt Hancock
United States
More flights between these airports :: More routes between these airports
Route: +MEADO4 FLW
File this flight plan on PilotEdge
Remarks:
Altitude:
(Current/Filed)
8,000ft
Speed:
(Current/Filed)
180kts
Departed: 09-Oct-20 07:28 AM
Arrived: 09-Oct-20 08:03 AM
Distance/Time
Traveled:
75nm/0:35
Distance/Time
To Go:
Arrived

Flight Plot

Page will automatically refresh every two minutes.

Flight plan parsing failed; only flown route is shown


Map Options




Map Legend


Flown Route
Filed Route
Departure Airport
Arrival Airport
Navaid (VOR, NDB)
Fix

Horizontal Profiles

Position Reports

Time Latitude Longitude Heading Altitude Ground
Speed
09-Oct-20 07:13 35.431406 -119.048636 39 498ft 0kts
09-Oct-20 07:14 35.431406 -119.048636 39 498ft 0kts
09-Oct-20 07:15 35.431406 -119.048636 39 498ft 0kts
09-Oct-20 07:16 35.431406 -119.048636 39 498ft 0kts
09-Oct-20 07:17 35.431406 -119.048636 39 498ft 0kts
09-Oct-20 07:18 35.431406 -119.048636 39 498ft 0kts
09-Oct-20 07:19 35.431406 -119.048636 39 498ft 0kts
09-Oct-20 07:20 35.431406 -119.048636 39 498ft 0kts
09-Oct-20 07:21 35.431406 -119.048636 39 498ft 0kts
09-Oct-20 07:22 35.431406 -119.048636 39 498ft 0kts
09-Oct-20 07:23 35.431093 -119.048638 186 498ft 2kts
09-Oct-20 07:24 35.429470 -119.048667 138 498ft 9kts
09-Oct-20 07:25 35.426036 -119.044718 204 498ft 7kts
09-Oct-20 07:26 35.425759 -119.045090 220 498ft 0kts
09-Oct-20 07:27 35.431405 -119.053656 309 783ft 97kts
09-Oct-20 07:28 35.459264 -119.091776 312 1950ft 143kts
09-Oct-20 07:29 35.488965 -119.129498 312 3028ft 162kts
09-Oct-20 07:30 35.518705 -119.165970 312 4608ft 138kts
09-Oct-20 07:31 35.547352 -119.201444 312 6281ft 138kts
09-Oct-20 07:32 35.529810 -119.238190 211 7620ft 142kts
09-Oct-20 07:33 35.494895 -119.269824 232 7882ft 145kts
09-Oct-20 07:34 35.466099 -119.313278 231 7878ft 162kts
09-Oct-20 07:35 35.435397 -119.359140 231 7877ft 169kts
09-Oct-20 07:36 35.402572 -119.408031 231 7951ft 170kts
09-Oct-20 07:37 35.370344 -119.455962 231 8002ft 175kts
09-Oct-20 07:38 35.338029 -119.503958 231 8000ft 177kts
09-Oct-20 07:39 35.305298 -119.552501 231 7999ft 177kts
09-Oct-20 07:40 35.272223 -119.601483 231 7999ft 177kts
09-Oct-20 07:41 35.239354 -119.650090 230 7999ft 177kts
09-Oct-20 07:42 35.206741 -119.698246 230 8000ft 177kts
09-Oct-20 07:43 35.173950 -119.746606 230 8000ft 177kts
09-Oct-20 07:44 35.140639 -119.795659 230 8000ft 177kts
09-Oct-20 07:45 35.106484 -119.845880 231 8000ft 177kts
09-Oct-20 07:46 35.080851 -119.903432 249 8000ft 175kts
09-Oct-20 07:47 35.061085 -119.964537 249 8000ft 175kts
09-Oct-20 07:48 35.041240 -120.025748 249 8002ft 174kts
09-Oct-20 07:49 35.021443 -120.086695 249 8016ft 173kts
09-Oct-20 07:50 35.001565 -120.147743 249 8027ft 173kts
09-Oct-20 07:51 34.976053 -120.202866 192 8000ft 180kts
09-Oct-20 07:52 34.920061 -120.204584 182 7967ft 183kts
09-Oct-20 07:53 34.861256 -120.205863 182 7119ft 198kts
09-Oct-20 07:54 34.802118 -120.207101 182 6258ft 197kts
09-Oct-20 07:55 34.742992 -120.208802 190 5379ft 195kts
09-Oct-20 07:56 34.731397 -120.268177 262 4644ft 180kts
09-Oct-20 07:57 34.728641 -120.330498 318 3949ft 166kts
09-Oct-20 07:58 34.770853 -120.361837 329 2988ft 157kts
09-Oct-20 07:59 34.811002 -120.389494 330 2204ft 153kts
09-Oct-20 08:00 34.854436 -120.419332 331 1292ft 156kts
09-Oct-20 08:01 34.887998 -120.442013 338 502ft 92kts
09-Oct-20 08:02 34.898851 -120.451745 90 264ft 7kts
09-Oct-20 08:03 34.898850 -120.451212 95 264ft 0kts
09-Oct-20 08:04 34.900626 -120.450410 177 264ft 0kts
09-Oct-20 08:05 34.900626 -120.450410 177 264ft 0kts
09-Oct-20 08:06 34.900898 -120.450600 141 264ft 0kts

Navigation Log

Ident Type
Flight plan parsing failed, navigation log unavailable